Terminal Aerodrome Forecast
Issued by NWS Wilmington, NC

Home | Current Version | Previous Version | Text Only | Print | Product List | Glossary On
Versions: 1 2 3 4 5 6 7 8 9 10 11 12 13 14 15 16 17 18 19 20 21 22
000
FTUS42 KILM 202300
TAFFLO
TAF
KFLO 202324Z 2100/2124 VRB03KT P6SM FEW060 SCT100
     FM210600 VRB02KT 4SM BR FEW100
      TEMPO 2109/2112 1SM BR
     FM211300 VRB04KT P6SM SCT150
     FM211800 29007KT P6SM VCSH SCT050=

USA.gov is the U.S. government's official web portal to all federal, state and local government web resources and services.